Windflight — WDF6324 — position and weather

sailwx.info

Track history (hours):
 
Tides and Currents Weather Stations Pressure Air Temp Water Temp Dewpoint Dewpoint Depression Visibility Wind Speed Wind Dir Waves Ship Positions

Windflight

Owner: Windflight Inc., Medina, WA. More information available from US FCC via Universal Licensing System and Coast Guard Vessel Documentation Center.

Last reported at 2016-Aug-29 22:33 UTC. Time now 2016-Aug-29 23:32 UTC.
Position N 47°41' W 122°25'.

Length 21 m.

Type: Pleasure craft. MMSI: 367473060.

Date/timePositionNaut miles runAvg speedWind from/ knotsBaromVisibWave heightAir tempDewpointWater temp
2016-Aug-29 22:33N 47°41' W 122°25'0 0.0
2016-Aug-29 21:33N 47°41' W 122°25'3 3.1
2016-Aug-29 20:33N 47°44' W 122°25'9 8.6
2016-Aug-29 19:33N 47°52' W 122°27'9 9.0
2016-Aug-29 18:32N 47°60' W 122°35'18 8.8
2016-Aug-29 16:30N 48°15' W 122°49'8 8.0
2016-Aug-29 15:28N 48°22' W 122°55'8 9.2
2016-Aug-29 14:33N 48°30' W 122°57'3 2.5
2016-Aug-29 13:33N 48°32' W 123°00'0 0.0
2016-Aug-29 12:33N 48°32' W 123°00'0 0.0
2016-Aug-29 11:33N 48°32' W 123°00'0 0.0
2016-Aug-29 10:33N 48°32' W 123°00'0 0.0
2016-Aug-29 09:33N 48°32' W 123°00'0 0.0
2016-Aug-29 08:33N 48°32' W 123°00'0 0.0
2016-Aug-29 07:33N 48°32' W 123°00'0 0.0
2016-Aug-29 06:33N 48°32' W 123°00'0 0.0
2016-Aug-29 05:30N 48°32' W 123°00'0 0.0
2016-Aug-29 04:33N 48°32' W 123°00'0 0.0
2016-Aug-29 03:24N 48°32' W 123°00'0 0.0
2016-Aug-29 02:33N 48°32' W 123°00'0 0.0
2016-Aug-29 01:33N 48°32' W 123°00'0 0.0
2016-Aug-29 00:33N 48°32' W 123°00'0 0.0
2016-Aug-28 23:33N 48°32' W 123°00'0 0.0
2016-Aug-28 22:33N 48°32' W 123°00'0 0.0
2016-Aug-28 21:33N 48°32' W 123°00'0 0.0
2016-Aug-28 20:33N 48°32' W 123°00'0 0.0
2016-Aug-28 19:27N 48°32' W 123°00'0 0.0
2016-Aug-28 18:33N 48°32' W 123°00'0 0.0
2016-Aug-28 17:33N 48°32' W 123°00'0 0.0
2016-Aug-28 16:33N 48°32' W 123°00'0 0.0
2016-Aug-28 15:33N 48°32' W 123°00'0 0.0
2016-Aug-28 14:30N 48°32' W 123°00'0 0.0
2016-Aug-28 13:33N 48°32' W 123°00'0 0.0
2016-Aug-28 12:30N 48°32' W 123°00'0 0.0
2016-Aug-28 11:30N 48°32' W 123°00'0 0.0
2016-Aug-28 10:33N 48°32' W 123°00'0 0.0
2016-Aug-28 09:33N 48°32' W 123°00'0 0.0
2016-Aug-28 08:33N 48°32' W 123°00'0 0.0
2016-Aug-28 07:33N 48°32' W 123°00'0 0.0
2016-Aug-28 06:33N 48°32' W 123°00'0 0.0
2016-Aug-28 05:33N 48°32' W 123°00'0 0.0
2016-Aug-28 04:30N 48°32' W 123°00'0 0.0
2016-Aug-28 03:33N 48°32' W 123°00'0 0.0
2016-Aug-28 02:33N 48°32' W 123°00'0 0.0
2016-Aug-28 01:33N 48°32' W 123°00'0 0.0
2016-Aug-28 00:27N 48°32' W 123°00'0 0.0
2016-Aug-27 23:30N 48°32' W 123°00'0 0.0
2016-Aug-27 22:30N 48°32' W 123°00'0 0.0
2016-Aug-27 21:33N 48°32' W 123°00'0 0.0
2016-Aug-27 20:30N 48°32' W 123°00'0 0.0
2016-Aug-27 19:33N 48°32' W 123°00'2 2.3
2016-Aug-27 18:33N 48°34' W 123°01'9 9.0
2016-Aug-27 17:34N 48°38' W 123°13'7 6.7
2016-Aug-27 16:32N 48°39' W 123°24'0 0.0
2016-Aug-27 15:12N 48°39' W 123°24'0 0.0
2016-Aug-27 10:26N 48°39' W 123°24'0 0.0
2016-Aug-26 15:14N 48°39' W 123°24'0 0.0
2016-Aug-25 21:12N 48°39' W 123°24'0 0.0
2016-Aug-25 20:05N 48°39' W 123°24'2 3.8
2016-Aug-25 19:32N 48°41' W 123°21'8 8.3
2016-Aug-25 18:33N 48°49' W 123°25'3 1.5
2016-Aug-25 16:17N 48°51' W 123°28'0 0.0
2016-Aug-25 14:11N 48°51' W 123°28'0 0.0
2016-Aug-25 13:27N 48°51' W 123°28'0 0.0
2016-Aug-25 12:24N 48°51' W 123°28'0 0.0
2016-Aug-25 08:23N 48°51' W 123°28'0 0.0
2016-Aug-25 07:29N 48°51' W 123°28'0 0.0
2016-Aug-25 06:14N 48°51' W 123°28'0 0.0
2016-Aug-25 03:12N 48°51' W 123°28'0 0.0
2016-Aug-25 01:33N 48°51' W 123°28'0 0.0
2016-Aug-25 00:11N 48°51' W 123°28'0 0.0
2016-Aug-24 23:18N 48°51' W 123°28'0 0.0
2016-Aug-24 22:21N 48°51' W 123°28'3 3.1
2016-Aug-24 21:24N 48°52' W 123°24'7 7.4
2016-Aug-24 20:30N 48°56' W 123°31'9 9.2
2016-Aug-24 19:29N 49°04' W 123°40'6 6.9
2016-Aug-24 18:33N 49°10' W 123°40'9 9.1
2016-Aug-24 17:33N 49°18' W 123°46'9 8.5
2016-Aug-24 16:33N 49°24' W 123°55'9 8.6
2016-Aug-24 15:33N 49°31' W 124°03'6 6.3
2016-Aug-24 14:33N 49°38' W 124°02'0 0.4
2016-Aug-24 13:29N 49°38' W 124°01'0 0.0
2016-Aug-24 12:29N 49°38' W 124°01'0 0.0
2016-Aug-24 11:29N 49°38' W 124°01'0 0.0
2016-Aug-24 10:29N 49°38' W 124°01'0 0.0
2016-Aug-24 09:23N 49°38' W 124°01'0 0.0
2016-Aug-24 08:29N 49°38' W 124°01'0 0.0
2016-Aug-24 07:29N 49°38' W 124°01'0 0.0
2016-Aug-24 06:29N 49°38' W 124°01'0 0.0
2016-Aug-24 04:29N 49°38' W 124°01'0 0.0
2016-Aug-24 03:29N 49°38' W 124°01'0 0.0
2016-Aug-24 02:29N 49°38' W 124°01'0 0.0
2016-Aug-24 01:29N 49°38' W 124°01'0 0.0
2016-Aug-24 00:29N 49°38' W 124°01'0 0.0
2016-Aug-23 23:29N 49°38' W 124°01'0 0.0
2016-Aug-23 22:32N 49°38' W 124°01'0 0.0
2016-Aug-23 21:32N 49°38' W 124°01'0 0.0
2016-Aug-23 20:33N 49°38' W 124°01'6 6.2
2016-Aug-23 19:33N 49°39' W 124°10'9 8.6
2016-Aug-23 18:33N 49°44' W 124°22'9 8.5
2016-Aug-23 17:33N 49°49' W 124°33'8 8.3
2016-Aug-23 16:33N 49°55' W 124°41'9 8.7
2016-Aug-23 15:33N 50°01' W 124°52'4 3.3
2016-Aug-23 14:18N 50°04' W 124°56'0 0.0
2016-Aug-23 13:30N 50°04' W 124°56'0 0.0
2016-Aug-23 12:30N 50°04' W 124°56'0 0.0
2016-Aug-23 11:30N 50°04' W 124°56'0 0.0
2016-Aug-23 10:24N 50°04' W 124°56'0 0.0
2016-Aug-23 09:33N 50°04' W 124°56'0 0.0
2016-Aug-23 08:30N 50°04' W 124°56'0 0.0
2016-Aug-23 07:27N 50°04' W 124°56'0 0.0
2016-Aug-23 06:18N 50°04' W 124°56'0 0.0
2016-Aug-23 03:30N 50°04' W 124°56'0 0.0
2016-Aug-23 02:30N 50°04' W 124°56'0 0.0
2016-Aug-23 00:33N 50°04' W 124°56'0 0.0
2016-Aug-22 23:33N 50°04' W 124°56'0 0.0
2016-Aug-22 22:09N 50°04' W 124°56'0 0.0
2016-Aug-22 21:33N 50°04' W 124°56'0 0.0
2016-Aug-22 20:30N 50°04' W 124°56'0 0.0
2016-Aug-22 19:30N 50°04' W 124°56'0 0.0
2016-Aug-22 18:30N 50°04' W 124°56'0 0.0
2016-Aug-22 17:30N 50°04' W 124°56'0 0.0
2016-Aug-22 16:24N 50°04' W 124°56'0 0.0
2016-Aug-22 15:24N 50°04' W 124°56'0 0.0
2016-Aug-22 14:18N 50°04' W 124°56'0 0.0
2016-Aug-22 13:30N 50°04' W 124°56'0 0.0
2016-Aug-22 09:18N 50°04' W 124°56'0 0.0
2016-Aug-22 08:18N 50°04' W 124°56'0 0.0
2016-Aug-22 07:33N 50°04' W 124°56'0 0.0
2016-Aug-22 06:30N 50°04' W 124°56'0 0.0
2016-Aug-22 05:33N 50°04' W 124°56'0 0.0
2016-Aug-22 04:33N 50°04' W 124°56'0 0.0
2016-Aug-22 03:27N 50°04' W 124°56'0 0.0
2016-Aug-22 02:33N 50°04' W 124°56'0 0.0
2016-Aug-22 01:18N 50°04' W 124°56'0 0.0
2016-Aug-22 00:21N 50°04' W 124°56'0 0.0
2016-Aug-21 23:33N 50°04' W 124°56'0 0.0
2016-Aug-21 22:30N 50°04' W 124°56'0 0.0
2016-Aug-21 21:33N 50°04' W 124°56'0 0.0
2016-Aug-21 20:30N 50°04' W 124°56'0 0.0
2016-Aug-21 19:24N 50°04' W 124°56'0 0.0
2016-Aug-21 18:30N 50°04' W 124°56'0 0.0
2016-Aug-21 17:30N 50°04' W 124°56'0 0.0
2016-Aug-21 16:18N 50°04' W 124°56'0 0.0
2016-Aug-21 15:30N 50°04' W 124°56'0 0.0
2016-Aug-21 14:30N 50°04' W 124°56'0 0.0
2016-Aug-21 13:24N 50°04' W 124°56'0 0.0
2016-Aug-21 11:30N 50°04' W 124°56'0 0.0
2016-Aug-21 10:30N 50°04' W 124°56'0 0.0
2016-Aug-21 09:24N 50°04' W 124°56'0 0.0
2016-Aug-21 08:18N 50°04' W 124°56'0 0.0
2016-Aug-21 07:18N 50°04' W 124°56'0 0.0
2016-Aug-21 06:33N 50°04' W 124°56'0 0.0
2016-Aug-21 05:33N 50°04' W 124°56'0 0.0
2016-Aug-21 04:30N 50°04' W 124°56'0 0.0
2016-Aug-21 03:24N 50°04' W 124°56'0 0.0
2016-Aug-21 02:33N 50°04' W 124°56'0 0.0
2016-Aug-21 01:18N 50°04' W 124°56'0 0.0
2016-Aug-21 00:33N 50°04' W 124°56'0 0.0
2016-Aug-20 23:24N 50°04' W 124°56'0 0.0
2016-Aug-20 22:30N 50°04' W 124°56'0 0.0
2016-Aug-20 21:33N 50°04' W 124°56'0 0.0
2016-Aug-20 20:24N 50°04' W 124°56'0 0.0
2016-Aug-20 19:30N 50°04' W 124°56'0 0.0
2016-Aug-20 18:12N 50°04' W 124°56'0 0.0
2016-Aug-20 17:33N 50°04' W 124°56'0 0.0
2016-Aug-20 16:24N 50°04' W 124°56'0 0.0
2016-Aug-20 15:27N 50°04' W 124°56'0 0.0
2016-Aug-20 14:30N 50°04' W 124°56'0 0.0
2016-Aug-20 13:18N 50°04' W 124°56'0 0.0
2016-Aug-20 12:30N 50°04' W 124°56'0 0.0
2016-Aug-20 11:33N 50°04' W 124°56'0 0.0
2016-Aug-20 10:33N 50°04' W 124°56'0 0.0
2016-Aug-20 09:27N 50°04' W 124°56'0 0.0
2016-Aug-20 08:18N 50°04' W 124°56'0 0.0
2016-Aug-20 07:30N 50°04' W 124°56'0 0.0
2016-Aug-20 06:33N 50°04' W 124°56'0 0.0
2016-Aug-20 05:30N 50°04' W 124°56'0 0.0
2016-Aug-20 04:33N 50°04' W 124°56'0 0.0
2016-Aug-20 03:30N 50°04' W 124°56'0 0.0
2016-Aug-20 02:15N 50°04' W 124°56'0 0.0
2016-Aug-20 00:33N 50°04' W 124°56'0 0.0
2016-Aug-19 23:18N 50°04' W 124°56'  
Track history (hours):
 
Tides and Currents Weather Stations Pressure Air Temp Water Temp Dewpoint Dewpoint Depression Visibility Wind Speed Wind Dir Waves Ship Positions

Windflight

Owner: Windflight Inc., Medina, WA. More information available from US FCC via Universal Licensing System and Coast Guard Vessel Documentation Center.

Last reported at 2016-Aug-29 22:33 UTC. Time now 2016-Aug-29 23:32 UTC.
Position N 47°41' W 122°25'.

Length 21 m.

Type: Pleasure craft. MMSI: 367473060.

Date/timePositionNaut miles runAvg speedWind from/ knotsBaromVisibWave heightAir tempDewpointWater temp
2016-Aug-29 22:33N 47°41' W 122°25'0 0.0
2016-Aug-29 21:33N 47°41' W 122°25'3 3.1
2016-Aug-29 20:33N 47°44' W 122°25'9 8.6
2016-Aug-29 19:33N 47°52' W 122°27'9 9.0
2016-Aug-29 18:32N 47°60' W 122°35'18 8.8
2016-Aug-29 16:30N 48°15' W 122°49'8 8.0
2016-Aug-29 15:28N 48°22' W 122°55'8 9.2
2016-Aug-29 14:33N 48°30' W 122°57'3 2.5
2016-Aug-29 13:33N 48°32' W 123°00'0 0.0
2016-Aug-29 12:33N 48°32' W 123°00'0 0.0
2016-Aug-29 11:33N 48°32' W 123°00'0 0.0
2016-Aug-29 10:33N 48°32' W 123°00'0 0.0
2016-Aug-29 09:33N 48°32' W 123°00'0 0.0
2016-Aug-29 08:33N 48°32' W 123°00'0 0.0
2016-Aug-29 07:33N 48°32' W 123°00'0 0.0
2016-Aug-29 06:33N 48°32' W 123°00'0 0.0
2016-Aug-29 05:30N 48°32' W 123°00'0 0.0
2016-Aug-29 04:33N 48°32' W 123°00'0 0.0
2016-Aug-29 03:24N 48°32' W 123°00'0 0.0
2016-Aug-29 02:33N 48°32' W 123°00'0 0.0
2016-Aug-29 01:33N 48°32' W 123°00'0 0.0
2016-Aug-29 00:33N 48°32' W 123°00'0 0.0
2016-Aug-28 23:33N 48°32' W 123°00'0 0.0
2016-Aug-28 22:33N 48°32' W 123°00'0 0.0
2016-Aug-28 21:33N 48°32' W 123°00'0 0.0
2016-Aug-28 20:33N 48°32' W 123°00'0 0.0
2016-Aug-28 19:27N 48°32' W 123°00'0 0.0
2016-Aug-28 18:33N 48°32' W 123°00'0 0.0
2016-Aug-28 17:33N 48°32' W 123°00'0 0.0
2016-Aug-28 16:33N 48°32' W 123°00'0 0.0
2016-Aug-28 15:33N 48°32' W 123°00'0 0.0
2016-Aug-28 14:30N 48°32' W 123°00'0 0.0
2016-Aug-28 13:33N 48°32' W 123°00'0 0.0
2016-Aug-28 12:30N 48°32' W 123°00'0 0.0
2016-Aug-28 11:30N 48°32' W 123°00'0 0.0
2016-Aug-28 10:33N 48°32' W 123°00'0 0.0
2016-Aug-28 09:33N 48°32' W 123°00'0 0.0
2016-Aug-28 08:33N 48°32' W 123°00'0 0.0
2016-Aug-28 07:33N 48°32' W 123°00'0 0.0
2016-Aug-28 06:33N 48°32' W 123°00'0 0.0
2016-Aug-28 05:33N 48°32' W 123°00'0 0.0
2016-Aug-28 04:30N 48°32' W 123°00'0 0.0
2016-Aug-28 03:33N 48°32' W 123°00'0 0.0
2016-Aug-28 02:33N 48°32' W 123°00'0 0.0
2016-Aug-28 01:33N 48°32' W 123°00'0 0.0
2016-Aug-28 00:27N 48°32' W 123°00'0 0.0
2016-Aug-27 23:30N 48°32' W 123°00'0 0.0
2016-Aug-27 22:30N 48°32' W 123°00'0 0.0
2016-Aug-27 21:33N 48°32' W 123°00'0 0.0
2016-Aug-27 20:30N 48°32' W 123°00'0 0.0
2016-Aug-27 19:33N 48°32' W 123°00'2 2.3
2016-Aug-27 18:33N 48°34' W 123°01'9 9.0
2016-Aug-27 17:34N 48°38' W 123°13'7 6.7
2016-Aug-27 16:32N 48°39' W 123°24'0 0.0
2016-Aug-27 15:12N 48°39' W 123°24'0 0.0
2016-Aug-27 10:26N 48°39' W 123°24'0 0.0
2016-Aug-26 15:14N 48°39' W 123°24'0 0.0
2016-Aug-25 21:12N 48°39' W 123°24'0 0.0
2016-Aug-25 20:05N 48°39' W 123°24'2 3.8
2016-Aug-25 19:32N 48°41' W 123°21'8 8.3
2016-Aug-25 18:33N 48°49' W 123°25'3 1.5
2016-Aug-25 16:17N 48°51' W 123°28'0 0.0
2016-Aug-25 14:11N 48°51' W 123°28'0 0.0
2016-Aug-25 13:27N 48°51' W 123°28'0 0.0
2016-Aug-25 12:24N 48°51' W 123°28'0 0.0
2016-Aug-25 08:23N 48°51' W 123°28'0 0.0
2016-Aug-25 07:29N 48°51' W 123°28'0 0.0
2016-Aug-25 06:14N 48°51' W 123°28'0 0.0
2016-Aug-25 03:12N 48°51' W 123°28'0 0.0
2016-Aug-25 01:33N 48°51' W 123°28'0 0.0
2016-Aug-25 00:11N 48°51' W 123°28'0 0.0
2016-Aug-24 23:18N 48°51' W 123°28'0 0.0
2016-Aug-24 22:21N 48°51' W 123°28'3 3.1
2016-Aug-24 21:24N 48°52' W 123°24'7 7.4
2016-Aug-24 20:30N 48°56' W 123°31'9 9.2
2016-Aug-24 19:29N 49°04' W 123°40'6 6.9
2016-Aug-24 18:33N 49°10' W 123°40'9 9.1
2016-Aug-24 17:33N 49°18' W 123°46'9 8.5
2016-Aug-24 16:33N 49°24' W 123°55'9 8.6
2016-Aug-24 15:33N 49°31' W 124°03'6 6.3
2016-Aug-24 14:33N 49°38' W 124°02'0 0.4
2016-Aug-24 13:29N 49°38' W 124°01'0 0.0
2016-Aug-24 12:29N 49°38' W 124°01'0 0.0
2016-Aug-24 11:29N 49°38' W 124°01'0 0.0
2016-Aug-24 10:29N 49°38' W 124°01'0 0.0
2016-Aug-24 09:23N 49°38' W 124°01'0 0.0
2016-Aug-24 08:29N 49°38' W 124°01'0 0.0
2016-Aug-24 07:29N 49°38' W 124°01'0 0.0
2016-Aug-24 06:29N 49°38' W 124°01'0 0.0
2016-Aug-24 04:29N 49°38' W 124°01'0 0.0
2016-Aug-24 03:29N 49°38' W 124°01'0 0.0
2016-Aug-24 02:29N 49°38' W 124°01'0 0.0
2016-Aug-24 01:29N 49°38' W 124°01'0 0.0
2016-Aug-24 00:29N 49°38' W 124°01'0 0.0
2016-Aug-23 23:29N 49°38' W 124°01'0 0.0
2016-Aug-23 22:32N 49°38' W 124°01'0 0.0
2016-Aug-23 21:32N 49°38' W 124°01'0 0.0
2016-Aug-23 20:33N 49°38' W 124°01'6 6.2
2016-Aug-23 19:33N 49°39' W 124°10'9 8.6
2016-Aug-23 18:33N 49°44' W 124°22'9 8.5
2016-Aug-23 17:33N 49°49' W 124°33'8 8.3
2016-Aug-23 16:33N 49°55' W 124°41'9 8.7
2016-Aug-23 15:33N 50°01' W 124°52'4 3.3
2016-Aug-23 14:18N 50°04' W 124°56'0 0.0
2016-Aug-23 13:30N 50°04' W 124°56'0 0.0
2016-Aug-23 12:30N 50°04' W 124°56'0 0.0
2016-Aug-23 11:30N 50°04' W 124°56'0 0.0
2016-Aug-23 10:24N 50°04' W 124°56'0 0.0
2016-Aug-23 09:33N 50°04' W 124°56'0 0.0
2016-Aug-23 08:30N 50°04' W 124°56'0 0.0
2016-Aug-23 07:27N 50°04' W 124°56'0 0.0
2016-Aug-23 06:18N 50°04' W 124°56'0 0.0
2016-Aug-23 03:30N 50°04' W 124°56'0 0.0
2016-Aug-23 02:30N 50°04' W 124°56'0 0.0
2016-Aug-23 00:33N 50°04' W 124°56'0 0.0
2016-Aug-22 23:33N 50°04' W 124°56'0 0.0
2016-Aug-22 22:09N 50°04' W 124°56'0 0.0
2016-Aug-22 21:33N 50°04' W 124°56'0 0.0
2016-Aug-22 20:30N 50°04' W 124°56'0 0.0
2016-Aug-22 19:30N 50°04' W 124°56'0 0.0
2016-Aug-22 18:30N 50°04' W 124°56'0 0.0
2016-Aug-22 17:30N 50°04' W 124°56'0 0.0
2016-Aug-22 16:24N 50°04' W 124°56'0 0.0
2016-Aug-22 15:24N 50°04' W 124°56'0 0.0
2016-Aug-22 14:18N 50°04' W 124°56'0 0.0
2016-Aug-22 13:30N 50°04' W 124°56'0 0.0
2016-Aug-22 09:18N 50°04' W 124°56'0 0.0
2016-Aug-22 08:18N 50°04' W 124°56'0 0.0
2016-Aug-22 07:33N 50°04' W 124°56'0 0.0
2016-Aug-22 06:30N 50°04' W 124°56'0 0.0
2016-Aug-22 05:33N 50°04' W 124°56'0 0.0
2016-Aug-22 04:33N 50°04' W 124°56'0 0.0
2016-Aug-22 03:27N 50°04' W 124°56'0 0.0
2016-Aug-22 02:33N 50°04' W 124°56'0 0.0
2016-Aug-22 01:18N 50°04' W 124°56'0 0.0
2016-Aug-22 00:21N 50°04' W 124°56'0 0.0
2016-Aug-21 23:33N 50°04' W 124°56'0 0.0
2016-Aug-21 22:30N 50°04' W 124°56'0 0.0
2016-Aug-21 21:33N 50°04' W 124°56'0 0.0
2016-Aug-21 20:30N 50°04' W 124°56'0 0.0
2016-Aug-21 19:24N 50°04' W 124°56'0 0.0
2016-Aug-21 18:30N 50°04' W 124°56'0 0.0
2016-Aug-21 17:30N 50°04' W 124°56'0 0.0
2016-Aug-21 16:18N 50°04' W 124°56'0 0.0
2016-Aug-21 15:30N 50°04' W 124°56'0 0.0
2016-Aug-21 14:30N 50°04' W 124°56'0 0.0
2016-Aug-21 13:24N 50°04' W 124°56'0 0.0
2016-Aug-21 11:30N 50°04' W 124°56'0 0.0
2016-Aug-21 10:30N 50°04' W 124°56'0 0.0
2016-Aug-21 09:24N 50°04' W 124°56'0 0.0
2016-Aug-21 08:18N 50°04' W 124°56'0 0.0
2016-Aug-21 07:18N 50°04' W 124°56'0 0.0
2016-Aug-21 06:33N 50°04' W 124°56'0 0.0
2016-Aug-21 05:33N 50°04' W 124°56'0 0.0
2016-Aug-21 04:30N 50°04' W 124°56'0 0.0
2016-Aug-21 03:24N 50°04' W 124°56'0 0.0
2016-Aug-21 02:33N 50°04' W 124°56'0 0.0
2016-Aug-21 01:18N 50°04' W 124°56'0 0.0
2016-Aug-21 00:33N 50°04' W 124°56'0 0.0
2016-Aug-20 23:24N 50°04' W 124°56'0 0.0
2016-Aug-20 22:30N 50°04' W 124°56'0 0.0
2016-Aug-20 21:33N 50°04' W 124°56'0 0.0
2016-Aug-20 20:24N 50°04' W 124°56'0 0.0
2016-Aug-20 19:30N 50°04' W 124°56'0 0.0
2016-Aug-20 18:12N 50°04' W 124°56'0 0.0
2016-Aug-20 17:33N 50°04' W 124°56'0 0.0
2016-Aug-20 16:24N 50°04' W 124°56'0 0.0
2016-Aug-20 15:27N 50°04' W 124°56'0 0.0
2016-Aug-20 14:30N 50°04' W 124°56'0 0.0
2016-Aug-20 13:18N 50°04' W 124°56'0 0.0
2016-Aug-20 12:30N 50°04' W 124°56'0 0.0
2016-Aug-20 11:33N 50°04' W 124°56'0 0.0
2016-Aug-20 10:33N 50°04' W 124°56'0 0.0
2016-Aug-20 09:27N 50°04' W 124°56'0 0.0
2016-Aug-20 08:18N 50°04' W 124°56'0 0.0
2016-Aug-20 07:30N 50°04' W 124°56'0 0.0
2016-Aug-20 06:33N 50°04' W 124°56'0 0.0
2016-Aug-20 05:30N 50°04' W 124°56'0 0.0
2016-Aug-20 04:33N 50°04' W 124°56'0 0.0
2016-Aug-20 03:30N 50°04' W 124°56'0 0.0
2016-Aug-20 02:15N 50°04' W 124°56'0 0.0
2016-Aug-20 00:33N 50°04' W 124°56'0 0.0
2016-Aug-19 23:18N 50°04' W 124°56'  

Dump ship's entire track history